Terminal Aerodrome Forecast
Issued by NWS

Current Version | Previous Version | Graphics & Text | Print | Product List | Glossary On
Versions: 1 2 3 4 5 6 7 8 9 10 11 12 13 14 15 16 17 18 19 20
000
FTUS41 KILN 232334
TAFLUK
TAF
KLUK 232334Z 2400/2424 21008KT P6SM BKN070 OVC250
     FM240600 18010KT P6SM SCT050 SCT250
     FM241100 19010KT P6SM BKN080
     FM241500 19014G24KT P6SM BKN060
     FM242300 20012G19KT P6SM -SHRA VCTS SCT040CB OVC070=

USA.gov is the U.S. government's official web portal to all federal, state and local government web resources and services.